createdAt,value
2023-03-29T07:01:49.783Z,101214.78
2023-03-29T07:04:54.320Z,101219.53
2023-03-29T07:07:57.421Z,101225.97
2023-03-29T07:11:01.557Z,101228.16
2023-03-29T07:14:05.326Z,101225.22
2023-03-29T07:17:10.153Z,101229.59
2023-03-29T07:20:14.412Z,101235.72
2023-03-29T07:23:18.067Z,101235.59
2023-03-29T07:26:28.652Z,101231.22
2023-03-29T07:29:33.074Z,101236.75
2023-03-29T07:32:37.027Z,101235.25
2023-03-29T07:35:43.411Z,101243.47
2023-03-29T07:38:45.907Z,101237.47
2023-03-29T07:41:49.507Z,101236.47
2023-03-29T07:44:54.199Z,101242.94
2023-03-29T07:47:59.124Z,101240.69
2023-03-29T07:51:02.220Z,101246.16
2023-03-29T07:54:06.446Z,101248.75
2023-03-29T07:57:11.057Z,101256.06
2023-03-29T08:00:16.297Z,101252.78
2023-03-29T08:03:21.732Z,101251.75
2023-03-29T08:06:26.638Z,101253.78
2023-03-29T08:09:30.109Z,101249.16
2023-03-29T08:12:32.655Z,101247.16
2023-03-29T08:15:35.752Z,101248.19
2023-03-29T08:18:39.702Z,101249.75
2023-03-29T08:21:42.491Z,101254.94
2023-03-29T08:24:45.120Z,101249.81
2023-03-29T08:27:48.070Z,101246.84
2023-03-29T08:30:51.249Z,101239.19
2023-03-29T08:33:55.620Z,101242.56
2023-03-29T08:37:00.516Z,101240.69
2023-03-29T08:40:05.564Z,101239.09
2023-03-29T08:43:31.920Z,101242.56
2023-03-29T08:46:39.404Z,101241.81
2023-03-29T08:49:45.716Z,101231.81
2023-03-29T08:52:49.945Z,101224.63
2023-03-29T08:55:53.568Z,101231.31
2023-03-29T08:58:57.074Z,101222.56
2023-03-29T09:02:00.514Z,101217.84
2023-03-29T09:05:08.645Z,101211.72
2023-03-29T09:08:13.502Z,101213.28
2023-03-29T09:11:27.522Z,101215.16
2023-03-29T09:14:37.297Z,101213.94
2023-03-29T09:17:49.616Z,101207.97
2023-03-29T09:20:56.858Z,101204.09
2023-03-29T09:24:30.875Z,101200.03
2023-03-29T09:27:34.953Z,101191.06
2023-03-29T09:30:39.939Z,101189.63
2023-03-29T09:33:44.955Z,101188.34
2023-03-29T09:36:52.420Z,101184.78
2023-03-29T09:39:56.793Z,101177.75
2023-03-29T09:43:00.894Z,101182.28
2023-03-29T09:46:04.199Z,101182.72
2023-03-29T09:49:12.375Z,101183.78
2023-03-29T09:52:17.038Z,101177.66
2023-03-29T09:55:21.811Z,101178.38
2023-03-29T09:58:26.015Z,101168.09
2023-03-29T10:01:35.469Z,101172.91
2023-03-29T10:04:39.219Z,101160.44
2023-03-29T10:07:46.248Z,101149.81
2023-03-29T10:10:49.716Z,101147.81
2023-03-29T10:13:54.954Z,101150.78
2023-03-29T10:16:57.787Z,101140.59
2023-03-29T10:20:04.207Z,101142.72
2023-03-29T10:23:09.084Z,101131.00
2023-03-29T10:26:18.171Z,101134.03
2023-03-29T10:29:20.948Z,101128.13
2023-03-29T10:32:27.121Z,101132.25
2023-03-29T10:35:30.569Z,101120.47
2023-03-29T10:38:34.376Z,101116.06
2023-03-29T10:41:36.943Z,101116.28
2023-03-29T10:44:39.723Z,101116.09
2023-03-29T10:47:42.461Z,101119.66
2023-03-29T10:50:48.645Z,101114.22
2023-03-29T10:53:52.727Z,101110.50
2023-03-29T10:56:55.682Z,101109.34
2023-03-29T11:00:01.111Z,101105.19
2023-03-29T11:03:14.274Z,101102.78
2023-03-29T11:06:20.926Z,101098.69
2023-03-29T11:09:27.559Z,101092.22
2023-03-29T11:12:33.805Z,101094.91
2023-03-29T11:15:42.300Z,101093.88
2023-03-29T11:19:04.115Z,101090.13
2023-03-29T11:22:08.730Z,101089.31
2023-03-29T11:25:23.063Z,101080.97
2023-03-29T11:28:29.335Z,101083.22
2023-03-29T11:31:38.342Z,101075.84
2023-03-29T11:34:49.594Z,101074.63
2023-03-29T11:37:55.731Z,101071.28
2023-03-29T11:41:02.434Z,101068.19
2023-03-29T11:44:06.278Z,101066.19
2023-03-29T11:47:09.839Z,101062.19
2023-03-29T11:50:16.478Z,101060.78
2023-03-29T11:53:21.591Z,101057.47
2023-03-29T11:56:29.147Z,101054.78
2023-03-29T11:59:32.963Z,101049.06
2023-03-29T12:02:36.750Z,101048.59
2023-03-29T12:05:42.141Z,101043.50
2023-03-29T12:08:46.154Z,101036.03
2023-03-29T12:11:51.318Z,101032.91
2023-03-29T12:14:57.221Z,101027.13
2023-03-29T12:18:03.238Z,101022.66
2023-03-29T12:21:09.058Z,101017.34
2023-03-29T12:24:12.640Z,101019.22
2023-03-29T12:27:21.251Z,101002.53
2023-03-29T12:30:38.367Z,101008.47
2023-03-29T12:34:05.019Z,101009.38
2023-03-29T12:37:24.994Z,101003.69
2023-03-29T12:40:38.777Z,100993.47
2023-03-29T12:43:54.421Z,100998.34
2023-03-29T12:46:58.784Z,101000.94
2023-03-29T12:50:01.333Z,101000.16
2023-03-29T12:53:05.326Z,100993.78
2023-03-29T12:56:13.811Z,100989.75
2023-03-29T12:59:25.691Z,100983.97
2023-03-29T13:02:35.546Z,100989.94
2023-03-29T13:05:38.118Z,100981.69
2023-03-29T13:08:41.894Z,100983.56
2023-03-29T13:11:44.334Z,100994.97
2023-03-29T13:14:50.940Z,100988.81
2023-03-29T13:17:57.141Z,100981.66
2023-03-29T13:21:04.091Z,100985.31
2023-03-29T13:24:15.496Z,100984.41
2023-03-29T13:27:25.228Z,100980.66
2023-03-29T13:30:35.887Z,100974.38
2023-03-29T13:33:44.958Z,100971.63
2023-03-29T13:36:53.959Z,100966.28
2023-03-29T13:39:57.219Z,100964.53
2023-03-29T13:43:00.305Z,100964.88
2023-03-29T13:46:18.225Z,100959.44
2023-03-29T13:49:21.388Z,100951.00
2023-03-29T13:52:26.438Z,100948.87
2023-03-29T13:55:32.754Z,100939.66
2023-03-29T13:58:38.085Z,100937.47
2023-03-29T14:01:45.741Z,100940.00
2023-03-29T14:04:49.462Z,100936.28
2023-03-29T14:07:53.046Z,100939.53
2023-03-29T14:10:55.844Z,100933.56
2023-03-29T14:13:58.800Z,100933.22
2023-03-29T14:17:03.967Z,100934.94
2023-03-29T14:20:09.643Z,100933.56
2023-03-29T14:23:14.993Z,100924.75
2023-03-29T14:26:19.957Z,100925.44
2023-03-29T14:29:25.374Z,100925.44
2023-03-29T14:32:30.344Z,100926.75
2023-03-29T14:35:33.300Z,100918.72
2023-03-29T14:38:36.420Z,100914.78
2023-03-29T14:41:39.212Z,100916.75
2023-03-29T14:44:41.640Z,100911.00
2023-03-29T14:47:45.988Z,100914.41
2023-03-29T14:50:48.605Z,100910.22
2023-03-29T14:53:51.261Z,100904.00
2023-03-29T14:56:53.885Z,100902.34
2023-03-29T14:59:59.817Z,100901.81
2023-03-29T15:03:03.852Z,100905.97
2023-03-29T15:06:07.287Z,100896.00
